Time;durP1;ratioP1;P1;durP2;ratioP2;P2;SDS_P1;SDS_P2;PMS_P1;PMS_P2;Temp;Humidity;BMP_temperature;BMP_pressure;BME280_temperature;BME280_humidity;BME280_pressure;Samples;Min_cycle;Max_cycle;Signal;HPM_P1;HPM_P2
2022/05/13 00:02:12;;;;;;;9.80;5.53;;;;;;;12.29;100.00;99853.47;4988818;28;20047;-93
2022/05/13 00:04:57;;;;;;;10.18;5.38;;;;;;;12.35;100.00;99854.16;4988283;28;20046;-93
2022/05/13 00:07:41;;;;;;;13.60;6.22;;;;;;;12.19;100.00;99857.28;5007923;28;20045;-93
2022/05/13 00:10:25;;;;;;;15.30;7.00;;;;;;;12.21;100.00;99847.59;4991342;28;20038;-93
2022/05/13 00:13:10;;;;;;;9.82;5.30;;;;;;;12.23;100.00;99848.41;4993874;28;20121;-93
2022/05/13 00:15:55;;;;;;;9.00;5.57;;;;;;;12.07;100.00;99858.53;4989714;28;20054;-93
2022/05/13 00:18:40;;;;;;;10.73;5.05;;;;;;;12.07;100.00;99861.16;5020812;28;20504;-92
2022/05/13 00:21:25;;;;;;;11.32;5.68;;;;;;;12.09;100.00;99848.81;4989406;28;20069;-92
2022/05/13 00:24:10;;;;;;;15.50;7.63;;;;;;;12.05;100.00;99855.94;4988959;28;20045;-95
2022/05/13 00:26:55;;;;;;;10.77;6.13;;;;;;;11.86;100.00;99863.53;4973356;28;20045;-93
2022/05/13 00:29:40;;;;;;;10.10;5.70;;;;;;;11.83;100.00;99846.94;4990565;28;20062;-95
2022/05/13 00:32:24;;;;;;;12.80;6.25;;;;;;;11.70;100.00;99844.69;4986675;28;20042;-92
2022/05/13 00:35:09;;;;;;;10.20;5.10;;;;;;;11.68;100.00;99853.50;4987239;28;20041;-92
2022/05/13 00:37:53;;;;;;;11.35;6.10;;;;;;;11.45;100.00;99855.03;5001034;28;20042;-92
2022/05/13 00:40:39;;;;;;;10.73;5.80;;;;;;;11.46;100.00;99842.75;4977909;28;20045;-92
2022/05/13 00:43:45;;;;;;;11.75;5.40;;;;;;;11.16;100.00;99826.97;4987875;28;20045;-92
2022/05/13 00:46:29;;;;;;;11.05;4.68;;;;;;;11.42;100.00;99835.91;5012809;28;20035;-93
2022/05/13 00:49:16;;;;;;;12.43;5.32;;;;;;;11.40;100.00;99841.16;4991043;28;20042;-92
2022/05/13 00:52:03;;;;;;;7.70;4.18;;;;;;;11.20;100.00;99833.84;4987965;28;20061;-93
2022/05/13 00:54:49;;;;;;;7.60;3.75;;;;;;;11.08;100.00;99813.25;4991248;28;20060;-92
2022/05/13 00:57:35;;;;;;;5.95;3.92;;;;;;;11.13;100.00;99827.06;4987903;28;20109;-93
2022/05/13 01:00:21;;;;;;;6.22;3.70;;;;;;;11.11;100.00;99826.22;4989840;28;20100;-93
2022/05/13 01:03:06;;;;;;;7.15;3.65;;;;;;;11.13;100.00;99823.59;4990051;28;20045;-93
2022/05/13 01:05:56;;;;;;;8.32;3.92;;;;;;;11.31;100.00;99822.19;5001383;28;20038;-93
2022/05/13 01:08:41;;;;;;;7.53;3.70;;;;;;;11.09;100.00;99816.72;4989963;28;20498;-94
2022/05/13 01:11:29;;;;;;;9.13;4.53;;;;;;;11.23;100.00;99814.56;4989847;28;20547;-93
2022/05/13 01:14:24;;;;;;;7.45;3.50;;;;;;;11.20;100.00;99820.75;4992954;28;20112;-93
2022/05/13 01:20:50;;;;;;;6.07;2.80;;;;;;;11.22;100.00;99821.56;4986654;28;20038;-93
2022/05/13 01:23:40;;;;;;;4.93;2.75;;;;;;;11.05;100.00;99821.19;4988263;28;20045;-93
2022/05/13 01:26:26;;;;;;;7.53;2.67;;;;;;;11.14;100.00;99804.31;4987562;28;20537;-93
2022/05/13 01:29:11;;;;;;;4.38;2.35;;;;;;;11.09;100.00;99832.44;4976630;28;20048;-93
2022/05/13 01:31:56;;;;;;;9.15;4.68;;;;;;;10.96;100.00;99826.66;4993000;28;20060;-93
2022/05/13 01:34:42;;;;;;;6.05;3.45;;;;;;;10.87;100.00;99813.78;4990776;28;20038;-93
2022/05/13 01:37:26;;;;;;;7.68;3.40;;;;;;;10.87;100.00;99816.41;4989645;28;20489;-92
2022/05/13 01:40:11;;;;;;;14.25;9.55;;;;;;;10.88;100.00;99799.78;4988713;28;20401;-93
2022/05/13 01:42:55;;;;;;;13.20;7.65;;;;;;;10.77;100.00;99797.44;4989093;28;20546;-94
2022/05/13 01:45:41;;;;;;;8.85;5.43;;;;;;;10.85;100.00;99808.56;4991238;28;20057;-95
2022/05/13 01:48:27;;;;;;;7.10;3.83;;;;;;;10.74;100.00;99792.28;4981914;28;20038;-96
2022/05/13 01:51:13;;;;;;;4.43;3.28;;;;;;;10.70;100.00;99794.13;4990016;28;20071;-96
2022/05/13 01:54:01;;;;;;;13.88;3.17;;;;;;;10.56;100.00;99795.38;4982767;28;20084;-94
2022/05/13 01:56:47;;;;;;;3.83;2.67;;;;;;;10.49;100.00;99785.03;4994251;28;20038;-96
2022/05/13 01:59:32;;;;;;;3.97;2.45;;;;;;;10.45;100.00;99787.78;4996816;28;20453;-96
2022/05/13 02:02:19;;;;;;;4.53;2.83;;;;;;;10.47;100.00;99797.34;4998002;28;20045;-96
2022/05/13 02:05:06;;;;;;;5.32;2.80;;;;;;;10.35;100.00;99792.38;4995739;28;20145;-96
2022/05/13 02:07:52;;;;;;;5.53;2.63;;;;;;;10.24;100.00;99787.38;5003764;28;20054;-94
2022/05/13 02:10:36;;;;;;;4.65;2.75;;;;;;;10.25;100.00;99783.88;4975505;28;20062;-96
2022/05/13 02:13:22;;;;;;;6.43;2.50;;;;;;;10.05;100.00;99778.25;4992805;28;20120;-96
2022/05/13 02:16:08;;;;;;;4.03;2.45;;;;;;;9.95;100.00;99785.47;5003717;28;20038;-94
2022/05/13 02:18:53;;;;;;;3.65;2.20;;;;;;;9.83;100.00;99781.34;5011558;28;20184;-96
2022/05/13 02:21:38;;;;;;;8.60;2.78;;;;;;;9.86;100.00;99787.41;4983412;28;20053;-96
2022/05/13 02:24:23;;;;;;;4.75;2.60;;;;;;;9.65;100.00;99781.78;4974764;28;20057;-95
2022/05/13 02:27:07;;;;;;;7.80;3.28;;;;;;;9.64;100.00;99780.03;4991375;28;20580;-95
2022/05/13 02:29:52;;;;;;;5.30;2.63;;;;;;;9.42;100.00;99779.63;4977515;28;20034;-96
2022/05/13 02:32:36;;;;;;;6.32;2.00;;;;;;;9.39;100.00;99778.81;4989264;28;20428;-95
2022/05/13 02:35:21;;;;;;;7.95;2.60;;;;;;;9.47;100.00;99780.41;4988953;28;20120;-96
2022/05/13 02:38:07;;;;;;;6.20;2.60;;;;;;;9.42;100.00;99787.47;4985888;28;20081;-96
2022/05/13 02:43:56;;;;;;;6.80;2.28;;;;;;;9.43;100.00;99783.13;4986594;28;20409;-96
2022/05/13 02:46:42;;;;;;;5.82;2.15;;;;;;;9.43;100.00;99783.97;4959586;28;20583;-96
2022/05/13 02:49:26;;;;;;;5.80;2.25;;;;;;;9.32;100.00;99775.47;4973992;28;20039;-96
2022/05/13 02:52:11;;;;;;;3.38;1.95;;;;;;;9.11;100.00;99777.63;4972517;28;20045;-96
2022/05/13 02:54:55;;;;;;;4.40;2.33;;;;;;;9.16;100.00;99787.97;5000198;28;20038;-94
2022/05/13 02:57:41;;;;;;;5.20;2.20;;;;;;;9.19;100.00;99780.09;4982584;28;20137;-95
2022/05/13 03:00:25;;;;;;;2.70;1.60;;;;;;;9.25;100.00;99787.81;4989739;28;20022;-96
2022/05/13 03:03:11;;;;;;;7.55;2.88;;;;;;;9.25;100.00;99785.19;4986575;28;20058;-96
2022/05/13 03:06:01;;;;;;;5.50;1.83;;;;;;;9.17;100.00;99786.25;5003760;28;20058;-96
2022/05/13 03:08:48;;;;;;;5.80;2.33;;;;;;;9.15;100.00;99775.81;4989820;28;20053;-96
2022/05/13 03:11:33;;;;;;;6.85;2.50;;;;;;;9.11;100.00;99787.22;4970722;28;20042;-96
2022/05/13 03:14:18;;;;;;;8.93;2.50;;;;;;;9.16;100.00;99789.75;4974355;28;20049;-96
2022/05/13 03:17:06;;;;;;;4.88;2.53;;;;;;;9.19;100.00;99787.94;4973783;28;20054;-96
2022/05/13 03:19:51;;;;;;;5.05;2.00;;;;;;;9.28;100.00;99786.91;4943632;28;20450;-96
2022/05/13 03:22:35;;;;;;;4.25;1.85;;;;;;;9.21;100.00;99774.84;4988409;28;20034;-96
2022/05/13 03:25:22;;;;;;;5.65;2.35;;;;;;;9.31;100.00;99779.00;4993564;28;20038;-96
2022/05/13 03:28:07;;;;;;;6.38;3.10;;;;;;;9.31;100.00;99779.00;4957273;28;20560;-96
2022/05/13 03:30:55;;;;;;;8.30;3.90;;;;;;;9.27;100.00;99765.13;4982548;28;20097;-96
2022/05/13 03:33:40;;;;;;;12.25;4.70;;;;;;;9.39;100.00;99784.06;4981926;28;20064;-94
2022/05/13 03:36:25;;;;;;;7.07;3.97;;;;;;;9.39;100.00;99771.84;4992433;28;20039;-96
2022/05/13 03:39:10;;;;;;;6.88;3.30;;;;;;;9.31;100.00;99765.91;4982508;28;20053;-96
2022/05/13 03:41:55;;;;;;;6.20;3.50;;;;;;;9.41;100.00;99759.59;4962468;28;20052;-96
2022/05/13 03:44:39;;;;;;;13.95;5.43;;;;;;;9.46;100.00;99760.38;4991146;28;20497;-96
2022/05/13 03:47:24;;;;;;;6.95;3.83;;;;;;;9.58;100.00;99762.72;4958825;28;20065;-96
2022/05/13 03:50:09;;;;;;;6.95;3.10;;;;;;;9.71;100.00;99767.69;4988708;28;20069;-96
2022/05/13 03:52:54;;;;;;;6.80;2.63;;;;;;;9.93;100.00;99771.53;4975643;28;20037;-96
2022/05/13 03:55:38;;;;;;;6.05;3.13;;;;;;;9.78;100.00;99762.31;4975295;28;20085;-96
2022/05/13 03:58:23;;;;;;;6.35;2.90;;;;;;;10.00;100.00;99762.63;4965566;28;20493;-96
2022/05/13 04:01:07;;;;;;;8.05;2.70;;;;;;;10.13;100.00;99764.97;4991312;28;20050;-96
2022/05/13 04:03:52;;;;;;;8.27;2.72;;;;;;;10.31;100.00;99764.56;4964534;28;20041;-96
2022/05/13 04:09:41;;;;;;;4.47;2.28;;;;;;;10.57;100.00;99779.63;4984388;28;20073;-96
2022/05/13 04:18:42;;;;;;;6.80;3.22;;;;;;;11.29;100.00;99777.69;4992798;28;20034;-96
2022/05/13 04:21:29;;;;;;;5.95;3.58;;;;;;;11.43;100.00;99770.28;4989616;28;20448;-94
2022/05/13 04:24:18;;;;;;;7.43;3.30;;;;;;;11.43;100.00;99772.91;4977798;28;20038;-93
2022/05/13 04:27:03;;;;;;;7.57;3.85;;;;;;;11.32;100.00;99768.88;4981679;28;20034;-94
2022/05/13 04:29:47;;;;;;;7.30;3.17;;;;;;;11.73;100.00;99765.00;4990196;28;20398;-92
2022/05/13 04:32:32;;;;;;;6.15;3.33;;;;;;;11.92;100.00;99765.34;4990083;28;20040;-93
2022/05/13 04:35:16;;;;;;;6.55;3.03;;;;;;;12.10;100.00;99770.03;4980426;28;20038;-94
2022/05/13 04:38:01;;;;;;;7.03;3.17;;;;;;;12.19;100.00;99781.13;4979166;28;20505;-92
2022/05/13 04:40:45;;;;;;;5.95;2.40;;;;;;;12.45;100.00;99781.16;4987821;28;20034;-94
2022/05/13 04:43:32;;;;;;;7.70;3.08;;;;;;;12.50;100.00;99779.22;4974168;28;20089;-94
2022/05/13 04:46:17;;;;;;;5.90;2.85;;;;;;;12.70;100.00;99789.06;4985494;28;20034;-94
2022/05/13 04:49:03;;;;;;;5.38;2.50;;;;;;;12.76;100.00;99785.38;4989322;28;20042;-94
2022/05/13 04:51:48;;;;;;;6.25;2.40;;;;;;;13.10;100.00;99787.69;4987633;28;20038;-94
2022/05/13 04:54:33;;;;;;;5.60;2.17;;;;;;;13.00;100.00;99787.16;5005215;28;20038;-95
2022/05/13 04:57:17;;;;;;;4.43;2.33;;;;;;;13.22;100.00;99787.22;4971880;28;20046;-93
2022/05/13 05:00:03;;;;;;;3.92;2.33;;;;;;;13.20;100.00;99786.44;4986728;28;20038;-94
2022/05/13 05:02:49;;;;;;;2.50;1.63;;;;;;;13.59;100.00;99791.19;4981993;28;20077;-92
2022/05/13 05:05:34;;;;;;;4.28;2.60;;;;;;;13.42;100.00;99786.56;4990573;28;20088;-94
2022/05/13 05:08:19;;;;;;;5.05;2.03;;;;;;;13.55;100.00;99794.81;4985214;28;20038;-93
2022/05/13 05:11:05;;;;;;;3.08;1.70;;;;;;;13.57;100.00;99793.84;4989209;28;20496;-93
2022/05/13 05:13:51;;;;;;;3.20;1.83;;;;;;;13.55;100.00;99793.06;4976203;28;20092;-93
2022/05/13 05:16:36;;;;;;;1.83;1.30;;;;;;;13.65;100.00;99797.97;5005613;28;20042;-93
2022/05/13 05:19:20;;;;;;;4.70;1.77;;;;;;;14.08;100.00;99793.69;4991455;28;20042;-93
2022/05/13 05:22:05;;;;;;;2.85;1.90;;;;;;;14.30;100.00;99788.41;4970394;28;20077;-94
2022/05/13 05:24:50;;;;;;;2.53;1.75;;;;;;;14.40;100.00;99777.44;4968612;28;20035;-92
2022/05/13 05:27:37;;;;;;;3.80;2.67;;;;;;;14.44;100.00;99792.19;5001821;28;20470;-92
2022/05/13 05:30:23;;;;;;;5.38;2.05;;;;;;;14.94;100.00;99791.03;4985135;28;20097;-93
2022/05/13 05:33:08;;;;;;;3.67;2.40;;;;;;;15.30;100.00;99795.59;4988897;28;20045;-93
2022/05/13 05:35:53;;;;;;;3.80;1.88;;;;;;;15.86;100.00;99793.06;4987712;28;20042;-94
2022/05/13 05:38:37;;;;;;;9.63;2.42;;;;;;;15.94;100.00;99791.84;4986483;28;20046;-93
2022/05/13 05:41:21;;;;;;;3.85;1.88;;;;;;;16.56;100.00;99779.97;4972261;28;20074;-94
2022/05/13 05:44:06;;;;;;;4.13;2.13;;;;;;;17.34;100.00;99785.72;4988569;28;20939;-94
2022/05/13 05:46:50;;;;;;;4.65;2.30;;;;;;;18.12;99.44;99776.16;4987668;28;20042;-96
2022/05/13 05:49:35;;;;;;;4.57;2.63;;;;;;;17.33;100.00;99784.00;4988639;28;20043;-93
2022/05/13 05:52:19;;;;;;;4.30;2.60;;;;;;;17.75;100.00;99779.03;4976305;28;20412;-94
2022/05/13 05:58:13;;;;;;;6.55;3.33;;;;;;;18.04;98.17;99775.75;4986662;28;21097;-94
2022/05/13 06:00:58;;;;;;;4.38;2.97;;;;;;;18.39;100.00;99774.59;5013803;28;20374;-94
2022/05/13 06:03:43;;;;;;;6.70;2.90;;;;;;;18.23;100.00;99771.06;4988668;28;20118;-93
2022/05/13 06:06:27;;;;;;;8.98;3.63;;;;;;;18.13;97.46;99768.09;4990012;28;20072;-93
2022/05/13 06:09:12;;;;;;;7.20;3.00;;;;;;;18.59;96.55;99772.53;4984670;28;20043;-94
2022/05/13 06:11:56;;;;;;;10.35;3.55;;;;;;;19.21;96.04;99759.16;4989933;28;20046;-94
2022/05/13 06:14:42;;;;;;;5.18;3.10;;;;;;;18.88;94.91;99774.38;4983565;28;20420;-93
2022/05/13 06:17:27;;;;;;;7.60;2.88;;;;;;;20.08;94.35;99756.28;4993960;28;20111;-93
2022/05/13 06:20:13;;;;;;;8.18;3.42;;;;;;;20.20;92.52;99763.47;4988089;28;20043;-94
2022/05/13 06:22:58;;;;;;;5.63;2.97;;;;;;;20.60;81.29;99757.34;4985496;28;20664;-94
2022/05/13 06:25:42;;;;;;;11.73;3.85;;;;;;;21.23;72.17;99760.06;4985960;28;20038;-94
2022/05/13 06:28:27;;;;;;;7.88;3.53;;;;;;;21.56;71.24;99764.00;4976530;28;20042;-94
2022/05/13 06:31:11;;;;;;;7.97;3.80;;;;;;;21.05;69.39;99756.00;4976736;28;20030;-94
2022/05/13 06:33:56;;;;;;;9.18;3.88;;;;;;;21.32;71.20;99761.25;4989046;28;20045;-93
2022/05/13 06:36:41;;;;;;;8.82;3.60;;;;;;;21.57;67.71;99763.03;4986469;28;20042;-93
2022/05/13 06:39:26;;;;;;;6.72;3.05;;;;;;;21.83;65.48;99757.63;4989343;28;20049;-93
2022/05/13 06:42:11;;;;;;;10.32;2.58;;;;;;;22.19;64.66;99758.59;4974701;28;20488;-94
2022/05/13 06:45:00;;;;;;;9.20;2.53;;;;;;;22.30;67.36;99764.88;4976482;28;20041;-94
2022/05/13 06:47:45;;;;;;;4.10;1.58;;;;;;;22.46;62.52;99761.91;4976067;28;20042;-94
2022/05/13 06:50:29;;;;;;;10.43;1.65;;;;;;;22.56;59.29;99754.91;4984171;28;20042;-95
2022/05/13 06:53:16;;;;;;;2.28;0.68;;;;;;;22.85;54.53;99751.84;4984121;28;20077;-95
2022/05/13 06:56:00;;;;;;;5.03;0.88;;;;;;;23.33;56.50;99752.53;4994204;28;20042;-95
2022/05/13 06:58:45;;;;;;;1.10;0.60;;;;;;;23.39;52.67;99753.84;4989415;28;20038;-95
2022/05/13 07:01:29;;;;;;;4.03;0.40;;;;;;;22.92;50.92;99745.03;4985294;28;20069;-94
2022/05/13 07:04:13;;;;;;;1.20;0.47;;;;;;;23.38;51.34;99748.66;4988483;28;20038;-95
2022/05/13 07:06:59;;;;;;;1.50;0.50;;;;;;;22.59;52.73;99749.34;4990786;28;20046;-93
2022/05/13 07:09:44;;;;;;;1.88;0.40;;;;;;;23.79;49.57;99748.03;4989678;28;20042;-94
2022/05/13 07:12:29;;;;;;;3.50;0.30;;;;;;;23.03;44.42;99752.25;4998077;28;20042;-95
2022/05/13 07:15:16;;;;;;;2.08;0.30;;;;;;;23.21;45.38;99755.31;4991782;28;20129;-95
2022/05/13 07:18:01;;;;;;;1.95;0.30;;;;;;;23.63;44.71;99748.41;4990916;28;20042;-95
2022/05/13 07:20:46;;;;;;;1.48;0.50;;;;;;;24.24;47.43;99750.56;4993289;28;20410;-95
2022/05/13 07:23:31;;;;;;;1.58;0.30;;;;;;;24.55;38.34;99740.88;4991583;28;20038;-94
2022/05/13 07:26:16;;;;;;;2.38;0.30;;;;;;;24.65;37.03;99739.13;4992903;28;20052;-94
2022/05/13 07:29:01;;;;;;;3.25;0.25;;;;;;;25.11;36.67;99735.16;4978729;28;20042;-94
2022/05/13 07:31:45;;;;;;;0.85;0.20;;;;;;;25.36;38.09;99733.91;5006567;28;20042;-95
2022/05/13 07:34:30;;;;;;;3.60;0.40;;;;;;;25.17;38.76;99737.34;4977066;28;20038;-94
2022/05/13 07:37:14;;;;;;;2.92;0.45;;;;;;;25.20;43.60;99736.25;4980230;28;20106;-95
2022/05/13 07:43:03;;;;;;;1.35;0.35;;;;;;;25.39;38.70;99728.28;4976204;28;20052;-93
2022/05/13 07:45:47;;;;;;;1.83;0.40;;;;;;;24.93;36.76;99721.56;4992817;28;20054;-95
2022/05/13 07:48:32;;;;;;;1.05;0.30;;;;;;;24.72;37.96;99723.38;4977613;28;20041;-95
2022/05/13 07:51:17;;;;;;;1.45;0.25;;;;;;;25.16;35.96;99724.94;4989160;28;20070;-94
2022/05/13 07:54:01;;;;;;;1.33;0.40;;;;;;;25.81;36.07;99721.97;4991296;28;20041;-95
2022/05/13 07:56:45;;;;;;;2.30;0.50;;;;;;;25.19;37.28;99745.28;4991724;28;20042;-94
2022/05/13 08:00:24;;;;;;;2.95;0.40;;;;;;;26.28;35.96;99728.34;4990849;28;20042;-94
2022/05/13 08:02:37;;;;;;;0.95;0.40;;;;;;;26.72;34.97;99727.94;5003651;28;20053;-95
2022/05/13 08:05:22;;;;;;;1.27;0.45;;;;;;;25.94;37.07;99732.44;4989449;28;20480;-95
2022/05/13 08:08:10;;;;;;;5.28;0.52;;;;;;;26.21;36.54;99721.00;4993458;28;20042;-95
2022/05/13 08:10:58;;;;;;;2.35;0.50;;;;;;;26.47;34.73;99724.81;4990564;28;20628;-94
2022/05/13 08:13:43;;;;;;;1.40;0.77;;;;;;;24.84;36.12;99716.13;4990917;28;20042;-93
2022/05/13 08:16:29;;;;;;;1.80;0.35;;;;;;;25.29;37.32;99723.88;4988868;28;20084;-95
2022/05/13 08:19:14;;;;;;;1.60;0.40;;;;;;;25.95;36.01;99715.34;4988103;28;20477;-95
2022/05/13 08:21:59;;;;;;;1.80;0.20;;;;;;;25.71;35.93;99715.69;4988654;28;20042;-95
2022/05/13 08:24:43;;;;;;;2.03;0.40;;;;;;;25.86;35.69;99706.28;4989940;28;20479;-94
2022/05/13 08:27:28;;;;;;;1.58;0.35;;;;;;;26.32;34.64;99704.75;4975103;28;20050;-95
2022/05/13 08:30:14;;;;;;;3.53;0.85;;;;;;;26.37;35.95;99709.72;4968928;28;20677;-95
2022/05/13 08:33:01;;;;;;;4.38;0.50;;;;;;;26.91;34.07;99703.72;4973868;28;20093;-94
2022/05/13 08:35:51;;;;;;;2.42;0.60;;;;;;;26.92;35.10;99712.63;4983186;28;20504;-94
2022/05/13 08:38:38;;;;;;;1.67;0.40;;;;;;;27.03;33.26;99707.91;4974263;28;20039;-94
2022/05/13 08:41:43;;;;;;;1.20;0.32;;;;;;;25.16;35.98;99700.00;4976082;28;20038;-94
2022/05/13 08:44:27;;;;;;;1.85;0.52;;;;;;;24.98;38.64;99710.44;4987746;28;20545;-94
2022/05/13 08:47:26;;;;;;;1.02;0.40;;;;;;;25.13;37.73;99708.28;4990523;28;20047;-94
2022/05/13 08:50:21;;;;;;;3.05;0.50;;;;;;;25.92;35.97;99695.00;4987554;28;20038;-95
2022/05/13 08:53:31;;;;;;;2.10;0.70;;;;;;;25.30;35.77;99694.25;5008567;28;20386;-95
2022/05/13 08:56:24;;;;;;;0.88;0.20;;;;;;;26.02;35.43;99686.97;4990060;28;20042;-95
2022/05/13 08:59:13;;;;;;;3.65;0.80;;;;;;;25.51;36.58;99686.16;4973740;28;20054;-94
2022/05/13 09:02:06;;;;;;;2.53;0.57;;;;;;;25.02;35.41;99684.22;4991852;28;20050;-94
2022/05/13 09:05:00;;;;;;;1.38;0.30;;;;;;;25.16;36.34;99682.06;4992164;28;20034;-96
2022/05/13 09:07:44;;;;;;;1.25;0.30;;;;;;;24.62;36.01;99680.47;4984582;28;20034;-95
2022/05/13 09:10:30;;;;;;;1.67;0.30;;;;;;;23.76;36.47;99676.94;4974948;28;20460;-93
2022/05/13 09:13:26;;;;;;;4.25;0.20;;;;;;;25.55;34.36;99676.00;4991913;28;20675;-94
2022/05/13 09:16:11;;;;;;;0.60;0.20;;;;;;;26.14;36.93;99666.22;4973220;28;20061;-95
2022/05/13 09:19:03;;;;;;;4.18;0.75;;;;;;;25.69;36.95;99664.03;4987745;28;20062;-95
2022/05/13 09:21:47;;;;;;;6.15;0.50;;;;;;;25.89;34.60;99657.72;4975114;28;20050;-95
2022/05/13 09:24:31;;;;;;;3.65;0.50;;;;;;;25.92;34.48;99654.75;4990228;28;20133;-96
2022/05/13 09:27:16;;;;;;;2.17;0.60;;;;;;;26.07;35.08;99660.56;4989038;28;20034;-95
2022/05/13 09:30:00;;;;;;;5.43;0.47;;;;;;;27.30;33.07;99651.69;4991112;28;20484;-95
2022/05/13 09:32:44;;;;;;;1.88;0.40;;;;;;;26.23;34.78;99660.00;4986268;28;20046;-96
2022/05/13 09:35:34;;;;;;;3.63;0.15;;;;;;;25.26;35.01;99655.31;4989054;28;20124;-96
2022/05/13 09:38:27;;;;;;;3.80;0.40;;;;;;;25.01;35.05;99647.72;4987421;28;20038;-95
2022/05/13 09:41:22;;;;;;;2.35;0.30;;;;;;;24.64;36.96;99648.22;4977096;28;20069;-95
2022/05/13 09:44:25;;;;;;;0.98;0.30;;;;;;;23.95;36.72;99641.50;4974830;28;20540;-95
2022/05/13 09:47:13;;;;;;;1.17;0.10;;;;;;;25.41;36.46;99634.31;4984662;28;20126;-93
2022/05/13 09:50:00;;;;;;;0.68;0.22;;;;;;;25.77;34.40;99624.81;4971885;28;20116;-96
2022/05/13 09:52:45;;;;;;;1.40;0.20;;;;;;;26.19;34.76;99626.38;4986055;28;20539;-93
2022/05/13 09:55:40;;;;;;;0.70;0.20;;;;;;;25.83;36.37;99628.78;4985521;28;20111;-95
2022/05/13 09:58:29;;;;;;;2.30;0.30;;;;;;;26.22;33.44;99616.19;4971052;28;20141;-95
2022/05/13 10:01:21;;;;;;;1.20;0.20;;;;;;;26.36;32.84;99609.56;4971479;28;20085;-96
2022/05/13 10:04:12;;;;;;;2.80;0.30;;;;;;;26.91;33.59;99604.31;5001023;28;20046;-95
2022/05/13 10:07:13;;;;;;;2.25;0.28;;;;;;;25.48;34.42;99597.97;4989391;28;20050;-96
2022/05/13 10:16:34;;;;;;;1.60;0.20;;;;;;;26.74;32.67;99597.88;4985771;28;20282;-93
2022/05/13 10:19:34;;;;;;;2.22;0.73;;;;;;;27.17;33.54;99598.25;4973873;28;20046;-94
2022/05/13 10:22:22;;;;;;;3.10;0.40;;;;;;;26.76;34.63;99581.63;4984384;28;20057;-94
2022/05/13 10:25:27;;;;;;;0.77;0.20;;;;;;;26.68;33.79;99589.53;4971934;28;20104;-96
2022/05/13 10:28:16;;;;;;;3.97;0.50;;;;;;;27.42;33.84;99564.44;4986886;28;20034;-95
2022/05/13 10:31:18;;;;;;;3.40;0.63;;;;;;;26.91;31.99;99569.41;4985956;28;20116;-95
2022/05/13 10:34:36;;;;;;;1.83;0.17;;;;;;;27.86;32.88;99568.09;4968839;28;20056;-95
2022/05/13 10:37:32;;;;;;;0.80;0.20;;;;;;;27.35;32.98;99568.75;4984650;28;20042;-94
2022/05/13 10:40:20;;;;;;;2.88;0.47;;;;;;;27.52;33.20;99561.69;4969491;28;20057;-95
2022/05/13 10:43:13;;;;;;;0.75;0.10;;;;;;;27.67;32.07;99573.63;4985548;28;20516;-95
2022/05/13 10:46:13;;;;;;;1.20;0.15;;;;;;;27.25;33.47;99555.38;4958028;28;20128;-94
2022/05/13 10:48:57;;;;;;;2.28;0.30;;;;;;;26.40;32.27;99545.69;4983980;28;20050;-93
2022/05/13 10:52:05;;;;;;;4.18;0.40;;;;;;;26.76;35.15;99549.38;4985931;28;20045;-94
2022/05/13 10:54:53;;;;;;;3.28;0.50;;;;;;;26.72;32.68;99543.47;4966176;28;20062;-93
2022/05/13 10:58:06;;;;;;;2.45;0.38;;;;;;;26.48;33.07;99543.13;4977015;28;20043;-94
2022/05/13 11:01:32;;;;;;;1.10;0.20;;;;;;;27.25;32.67;99542.78;4979535;28;20092;-94
2022/05/13 11:04:33;;;;;;;1.90;0.20;;;;;;;26.17;34.40;99535.28;4984523;28;20042;-93
2022/05/13 11:07:39;;;;;;;1.90;0.20;;;;;;;26.50;33.97;99533.94;4976184;28;20045;-94
2022/05/13 11:10:33;;;;;;;7.10;1.05;;;;;;;26.45;34.64;99540.69;4973501;28;20042;-95
2022/05/13 11:13:39;;;;;;;1.05;0.40;;;;;;;26.75;35.78;99534.28;4974561;28;20688;-92
2022/05/13 11:16:32;;;;;;;3.70;0.30;;;;;;;26.50;34.58;99535.78;4970684;28;20049;-94
2022/05/13 11:19:29;;;;;;;1.45;0.50;;;;;;;27.59;36.81;99542.13;4974536;28;20045;-94
2022/05/13 11:22:20;;;;;;;2.25;0.25;;;;;;;26.62;32.64;99544.47;4976204;28;20042;-94
2022/05/13 11:28:21;;;;;;;1.33;0.40;;;;;;;25.17;35.78;99531.03;4984017;28;20046;-94
2022/05/13 11:31:13;;;;;;;1.27;0.47;;;;;;;25.70;36.97;99528.94;4983739;28;20108;-94
2022/05/13 11:34:07;;;;;;;1.35;0.30;;;;;;;24.67;37.38;99544.41;4997848;28;20042;-94
2022/05/13 11:37:05;;;;;;;1.50;0.30;;;;;;;25.18;35.11;99524.69;4984378;28;20030;-93
2022/05/13 11:40:10;;;;;;;1.88;1.30;;;;;;;26.27;35.18;99513.78;4980118;28;20037;-94
2022/05/13 11:46:01;;;;;;;2.72;0.60;;;;;;;25.52;35.38;99513.56;4985604;28;20507;-93
2022/05/13 11:48:48;;;;;;;1.88;0.20;;;;;;;25.16;36.58;99507.06;4973311;28;20034;-93
2022/05/13 11:51:35;;;;;;;0.75;0.22;;;;;;;26.21;36.07;99495.56;4984742;28;20042;-94
2022/05/13 11:54:30;;;;;;;1.80;1.10;;;;;;;25.32;37.36;99499.31;4999974;28;20049;-94
2022/05/13 11:57:23;;;;;;;2.25;1.10;;;;;;;25.15;37.01;99494.63;4989997;28;20041;-93
2022/05/13 12:00:24;;;;;;;3.67;1.40;;;;;;;26.06;36.62;99497.88;4977535;28;20739;-93
2022/05/13 12:03:09;;;;;;;3.05;0.40;;;;;;;25.78;36.37;99495.06;4976951;28;20053;-94
2022/05/13 12:06:11;;;;;;;1.50;0.40;;;;;;;24.64;37.42;99488.44;4970785;28;20068;-92
2022/05/13 12:08:59;;;;;;;1.38;0.30;;;;;;;25.07;38.23;99475.72;4972035;28;20366;-92
2022/05/13 12:12:17;;;;;;;1.33;0.55;;;;;;;25.41;37.01;99468.13;4975516;28;20078;-93
2022/05/13 12:15:31;;;;;;;3.42;0.38;;;;;;;25.41;39.16;99460.09;4972031;28;20092;-94
2022/05/13 12:18:32;;;;;;;2.63;0.25;;;;;;;25.58;37.32;99463.91;4985447;28;20057;-94
2022/05/13 12:21:35;;;;;;;7.18;0.47;;;;;;;26.35;36.96;99469.09;4971371;28;21041;-94
2022/05/13 12:24:22;;;;;;;3.28;0.50;;;;;;;25.65;36.80;99449.78;4974175;28;20042;-93
2022/05/13 12:27:11;;;;;;;1.52;0.55;;;;;;;25.15;37.50;99454.44;4973670;28;20491;-93
2022/05/13 12:30:00;;;;;;;1.05;0.30;;;;;;;24.74;37.84;99432.25;4985295;28;20042;-93
2022/05/13 12:32:47;;;;;;;1.38;0.30;;;;;;;25.10;36.99;99441.44;4988103;28;20032;-94
2022/05/13 12:39:05;;;;;;;3.30;0.77;;;;;;;26.01;36.98;99441.97;5015510;28;20064;-93
2022/05/13 12:42:09;;;;;;;3.60;0.90;;;;;;;25.30;36.62;99425.41;4981310;28;20046;-92
2022/05/13 12:45:13;;;;;;;3.00;0.60;;;;;;;25.48;36.19;99428.19;4979781;28;20034;-93
2022/05/13 12:48:08;;;;;;;1.92;0.47;;;;;;;25.72;35.86;99428.59;4987762;28;20086;-93
2022/05/13 12:51:11;;;;;;;4.68;0.50;;;;;;;24.93;37.12;99436.78;4998464;28;20046;-92
2022/05/13 12:54:15;;;;;;;3.15;0.50;;;;;;;25.64;37.15;99426.66;4972210;28;20034;-92
2022/05/13 12:58:04;;;;;;;4.50;0.70;;;;;;;26.12;36.55;99414.09;4987482;28;20644;-93
2022/05/13 13:00:51;;;;;;;4.90;0.95;;;;;;;25.27;35.71;99410.47;4974326;28;20089;-93
2022/05/13 13:03:39;;;;;;;1.20;0.35;;;;;;;25.03;37.58;99428.78;4984515;28;20042;-92
2022/05/13 13:06:25;;;;;;;3.55;0.63;;;;;;;25.45;38.95;99418.63;4970464;28;20089;-93
2022/05/13 13:09:42;;;;;;;4.18;0.60;;;;;;;25.17;37.41;99417.66;4987852;28;20129;-93
2022/05/13 13:12:38;;;;;;;2.25;0.35;;;;;;;24.67;38.20;99407.84;4986843;28;20100;-93
2022/05/13 13:15:54;;;;;;;2.15;0.43;;;;;;;24.58;39.23;99399.81;4973889;28;20045;-94
2022/05/13 13:18:39;;;;;;;4.15;0.60;;;;;;;25.91;38.33;99408.97;4971005;28;20045;-93
2022/05/13 13:21:25;;;;;;;2.55;0.60;;;;;;;25.17;37.92;99412.28;4972999;28;20411;-93
2022/05/13 13:24:16;;;;;;;3.95;0.40;;;;;;;24.97;39.54;99410.56;4966539;28;20046;-92
2022/05/13 13:27:00;;;;;;;4.75;0.45;;;;;;;24.75;38.80;99414.34;4991286;28;20133;-94
2022/05/13 13:29:48;;;;;;;2.50;0.93;;;;;;;25.25;38.91;99407.09;4989677;28;20050;-94
2022/05/13 13:32:32;;;;;;;4.00;0.57;;;;;;;25.26;39.13;99405.25;4999511;28;20049;-94
2022/05/13 13:35:34;;;;;;;3.70;0.50;;;;;;;24.85;40.34;99407.16;4981426;28;20042;-93
2022/05/13 13:38:19;;;;;;;1.42;0.50;;;;;;;25.37;39.27;99405.94;4990366;28;20435;-93
2022/05/13 13:41:05;;;;;;;1.98;0.47;;;;;;;24.85;40.33;99389.25;4968239;28;20457;-93
2022/05/13 13:43:58;;;;;;;2.30;0.57;;;;;;;24.13;40.10;99386.81;4972813;28;20058;-93
2022/05/13 13:46:47;;;;;;;6.20;0.82;;;;;;;24.02;41.54;99385.94;4990431;28;20041;-93
2022/05/13 13:49:35;;;;;;;1.17;0.30;;;;;;;23.78;42.58;99396.06;4971723;28;20038;-93